Latest Weather Observations for Dennes Point

IDT60801

Issued at 10:31 pm EST Wednesday 25 May 2016 (issued every 30 minutes, with the page automatically refreshed every 10 minutes)

About weather observations | Map of weather stations | Latest weather observations for TAS | Other Formats
Station Details ID: 094255 Name: DENNES POINT Lat: -43.06 Lon: 147.36 Height: 5.67 m
Data from the previous 72 hours. | See also: Recent months at Dennes Point
Date/Time
EST
Temp
°C
App
Temp
°C
Dew
Point
Rel
Hum
%
Delta-T
°C
Wind Press
QNH
hPa
Press
MSL
hPa
Rain
since 9 am
mm
Dir
 
Spd
km/h
Gust
km/h
Spd
kts
Gust
kts
25/10:30pm 9.5 6.9 6.0 79 1.6 NNE 9 13 5 7 1003.1 1003.1 0.0
25/10:00pm 9.8 6.4 6.0 77 1.8 NNE 13 15 7 8 1003.2 1003.2 0.0
25/09:30pm 10.2 6.1 6.4 77 1.8 N 17 20 9 11 1003.4 1003.4 0.0
25/09:00pm 10.4 5.4 6.5 77 1.8 NNE 22 28 12 15 1003.4 1003.4 0.0
25/08:30pm 10.2 6.1 6.2 76 1.9 NNE 17 19 9 10 1003.7 1003.7 0.0
25/08:00pm 10.4 7.8 6.2 75 2.0 N 9 13 5 7 1003.7 1003.7 0.0
25/07:30pm 10.3 4.9 6.3 76 1.9 NNE 24 30 13 16 1003.9 1003.9 0.0
25/07:00pm 10.1 5.1 6.3 77 1.8 NNE 22 26 12 14 1004.3 1004.3 0.0
25/06:30pm 10.3 5.6 6.1 75 1.9 NNE 20 24 11 13 1004.7 1004.7 0.0
25/06:00pm 10.5 6.8 6.1 74 2.1 NNE 15 20 8 11 1004.9 1004.9 0.0
25/05:30pm 10.4 6.6 6.0 74 2.0 NNE 15 19 8 10 1005.0 1005.0 0.0
25/05:00pm 10.4 6.7 6.2 75 2.0 NNE 15 17 8 9 1005.0 1005.0 0.0
25/04:30pm 10.5 6.7 5.9 73 2.1 NNE 15 17 8 9 1005.3 1005.3 0.0
25/04:00pm 10.4 6.9 5.4 71 2.3 NNE 13 15 7 8 1005.7 1005.7 0.0
25/03:30pm 10.3 6.4 5.3 71 2.3 NNE 15 17 8 9 1006.1 1006.1 0.0
25/03:00pm 10.4 6.9 5.4 71 2.3 NNE 13 17 7 9 1006.3 1006.3 0.0
25/02:30pm 10.0 6.8 5.0 71 2.3 N 11 17 6 9 1006.7 1006.7 0.0
25/02:00pm 9.6 5.2 5.0 73 2.1 NNE 17 20 9 11 1007.1 1007.1 0.0
25/01:30pm 9.8 5.0 4.8 71 2.2 NNE 19 22 10 12 1007.4 1007.4 0.0
25/01:00pm 9.5 6.9 4.3 70 2.3 NNE 7 11 4 6 1007.8 1007.8 0.0
25/12:30pm 9.0 5.3 4.2 72 2.1 N 13 17 7 9 1008.4 1008.4 0.0
25/12:00pm 9.1 5.0 4.5 73 2.0 N 15 20 8 11 1009.0 1009.0 0.0
25/11:30am 8.6 4.1 4.4 75 1.8 NNE 17 20 9 11 1009.7 1009.7 0.0
25/11:00am 8.5 5.2 4.3 75 1.8 NNE 11 17 6 9 1010.5 1010.5 0.0
25/10:30am 7.8 2.9 4.0 77 1.6 N 19 20 10 11 1011.4 1011.4 0.0
25/10:00am 8.1 6.5 4.3 77 1.7 S 2 6 1 3 1011.6 1011.6 0.0
25/09:30am 6.8 4.0 3.2 78 1.5 SSW 7 9 4 5 1012.0 1012.0 0.0
25/09:00am 6.8 5.3 2.9 76 1.6 CALM 0 0 0 0 1012.4 1012.4 0.0
25/08:30am 5.8 2.1 2.6 80 1.3 SSW 11 13 6 7 1012.6 1012.6 0.0
25/08:00am 5.6 2.6 2.1 78 1.4 SSW 7 9 4 5 1012.4 1012.4 0.0
25/07:30am 6.9 3.7 3.0 76 1.6 NW 9 13 5 7 1012.1 1012.1 0.0
25/07:00am 7.5 4.4 3.6 76 1.7 N 9 13 5 7 1011.6 1011.6 0.0
25/06:30am 7.5 5.0 3.6 76 1.7 NNW 6 9 3 5 1012.6 1012.6 0.0
25/06:00am 6.3 3.3 2.2 75 1.7 SSW 7 9 4 5 1012.9 1012.9 0.0
25/05:30am 7.2 3.9 2.5 72 1.9 SW 9 13 5 7 1013.3 1013.3 0.0
25/05:00am 6.3 3.0 2.4 76 1.6 SW 9 13 5 7 1013.6 1013.6 0.0
25/04:30am 5.6 2.6 1.9 77 1.5 SSW 7 9 4 5 1013.2 1013.2 0.0
25/04:00am 5.6 2.1 1.5 75 1.6 SSW 9 11 5 6 1013.3 1013.3 0.0
25/03:30am 5.7 1.6 2.0 77 1.5 SW 13 15 7 8 1013.1 1013.1 0.0
25/03:00am 6.9 3.9 2.0 71 2.0 SSW 7 13 4 7 1013.3 1013.3 0.0
25/02:30am 6.2 2.7 1.5 72 1.9 S 9 13 5 7 1013.9 1013.9 0.0
25/02:00am 5.8 2.3 1.2 72 1.8 S 9 13 5 7 1014.1 1014.1 0.0
25/01:30am 7.1 3.3 1.8 69 2.2 W 11 17 6 9 1014.3 1014.3 0.0
25/01:00am 7.6 2.3 2.1 68 2.3 W 19 22 10 12 1014.6 1014.6 0.0
25/12:30am 7.5 2.7 2.4 70 2.1 W 17 22 9 12 1014.7 1014.7 0.0
25/12:00am 7.5 2.7 2.6 71 2.0 W 17 22 9 12 1015.1 1015.1 0.0
 
Date/Time
EST
Temp
°C
App
Temp
°C
Dew
Point
Rel
Hum
%
Delta-T
°C
Wind Press
QNH
hPa
Press
MSL
hPa
Rain
since 9 am
mm
Dir
 
Spd
km/h
Gust
km/h
Spd
kts
Gust
kts
24/11:30pm 7.6 2.4 2.5 70 2.1 W 19 22 10 12 1015.2 1015.2 0.0
24/11:00pm 8.0 3.2 2.7 69 2.2 W 17 20 9 11 1015.4 1015.4 0.0
24/10:30pm 8.1 3.0 2.8 69 2.2 W 19 24 10 13 1015.8 1015.8 0.0
24/10:00pm 8.8 2.8 3.2 68 2.4 W 24 30 13 16 1015.7 1015.7 0.0
24/09:30pm 8.3 3.6 3.2 70 2.2 W 17 20 9 11 1015.9 1015.9 0.0
24/09:00pm 8.3 4.8 3.6 72 2.0 W 11 15 6 8 1015.8 1015.8 0.0
24/08:30pm 8.1 3.5 3.6 73 1.9 W 17 20 9 11 1016.0 1016.0 0.0
24/08:00pm 7.9 2.8 3.2 72 2.0 WSW 19 22 10 12 1015.8 1015.8 0.0
24/07:30pm 8.6 3.9 3.2 69 2.3 WSW 17 20 9 11 1015.7 1015.7 0.0
24/07:00pm 8.6 3.4 2.6 66 2.5 WSW 19 24 10 13 1015.7 1015.7 0.0
24/06:30pm 8.7 3.6 3.1 68 2.4 WSW 19 24 10 13 1015.5 1015.5 0.0
24/06:00pm 8.9 4.5 2.5 64 2.7 WSW 15 20 8 11 1015.4 1015.4 0.0
24/05:30pm 9.3 4.2 2.9 64 2.7 WSW 19 24 10 13 1015.2 1015.2 0.0
24/05:00pm 9.4 4.2 2.5 62 2.9 SW 19 28 10 15 1015.0 1015.0 0.0
24/04:30pm 9.8 4.3 1.9 58 3.3 SW 20 32 11 17 1014.8 1014.8 0.0
24/04:00pm 10.4 4.0 1.2 53 3.8 SW 24 35 13 19 1014.7 1014.7 0.0
24/03:30pm 11.2 4.1 1.5 51 4.1 SW 28 37 15 20 1014.4 1014.4 0.0
24/03:00pm 11.6 5.1 2.6 54 3.9 SW 26 39 14 21 1014.4 1014.4 0.0
24/02:30pm 11.4 4.9 2.7 55 3.8 SW 26 37 14 20 1014.1 1014.1 0.0
24/02:00pm 11.0 4.5 2.8 57 3.5 SW 26 39 14 21 1014.1 1014.1 0.0
24/01:35pm 10.6 5.7 3.9 63 3.0 SSW 19 39 10 21 1014.0 1014.0 0.0
24/01:30pm 9.9 5.8 4.5 69 2.4 S 15 20 8 11 1014.1 1014.1 0.0
24/01:00pm 11.6 5.9 4.8 63 3.1 SW 24 35 13 19 1014.1 1014.1 0.0
24/12:30pm 11.0 6.1 5.1 67 2.7 WSW 20 28 11 15 1014.1 1014.1 0.0
24/12:00pm 10.0 3.8 4.4 68 2.5 WSW 26 35 14 19 1014.3 1014.3 0.0
24/11:30am 9.8 3.7 4.6 70 2.3 WSW 26 37 14 20 1014.4 1014.4 0.0
24/11:00am 9.9 3.7 4.1 67 2.6 SW 26 43 14 23 1014.7 1014.7 0.0
24/10:30am 10.6 3.1 3.6 62 3.1 WSW 32 48 17 26 1014.1 1014.1 0.0
24/10:00am 10.8 4.1 3.6 61 3.2 SW 28 33 15 18 1014.2 1014.2 0.0
24/09:30am 10.3 2.9 3.8 64 2.9 WSW 32 43 17 23 1013.7 1013.7 0.0
24/09:00am 10.1 3.0 3.6 64 2.8 WSW 30 35 16 19 1013.7 1013.7 4.4
24/08:30am 9.6 4.0 3.4 65 2.7 WSW 22 32 12 17 1013.5 1013.5 4.4
24/08:00am 9.3 3.2 2.6 63 2.8 WSW 24 32 13 17 1013.2 1013.2 4.4
24/07:30am 8.8 3.7 2.8 66 2.5 WSW 19 24 10 13 1012.8 1012.8 4.4
24/07:00am 9.2 3.9 3.0 65 2.7 WSW 20 28 11 15 1012.4 1012.4 4.4
24/06:30am 9.3 3.3 3.1 65 2.7 SW 24 32 13 17 1012.1 1012.1 4.4
24/06:00am 9.3 3.0 3.7 68 2.4 WSW 26 33 14 18 1011.8 1011.8 4.4
24/05:30am 9.4 2.8 4.0 69 2.4 WSW 28 33 15 18 1011.6 1011.6 4.4
24/05:00am 9.4 3.6 4.2 70 2.3 WSW 24 32 13 17 1011.5 1011.5 4.4
24/04:30am 9.3 3.0 3.9 69 2.4 SW 26 33 14 18 1011.3 1011.3 4.4
24/04:00am 9.1 3.3 4.3 72 2.1 WSW 24 33 13 18 1011.0 1011.0 4.4
24/03:30am 9.3 3.1 4.1 70 2.3 WSW 26 33 14 18 1010.7 1010.7 4.4
24/03:00am 9.3 3.0 3.5 67 2.5 SW 26 35 14 19 1010.9 1010.9 4.4
24/02:30am 9.1 2.4 3.7 69 2.3 WSW 28 33 15 18 1010.8 1010.8 4.4
24/02:00am 9.4 1.9 3.6 67 2.5 WSW 32 41 17 22 1010.6 1010.6 4.4
24/01:30am 9.6 2.5 3.8 67 2.5 WSW 30 41 16 22 1010.6 1010.6 4.4
24/01:00am 9.5 3.9 3.3 65 2.7 WSW 22 28 12 15 1010.7 1010.7 4.4
24/12:30am 9.3 3.6 2.6 63 2.8 WSW 22 32 12 17 1010.7 1010.7 4.2
24/12:00am 9.0 4.5 2.3 63 2.8 SW 15 20 8 11 1010.6 1010.6 4.2
 
Date/Time
EST
Temp
°C
App
Temp
°C
Dew
Point
Rel
Hum
%
Delta-T
°C
Wind Press
QNH
hPa
Press
MSL
hPa
Rain
since 9 am
mm
Dir
 
Spd
km/h
Gust
km/h
Spd
kts
Gust
kts
23/11:30pm 8.8 4.0 2.6 65 2.6 SW 17 32 9 17 1010.4 1010.4 4.2
23/11:00pm 9.1 3.4 2.7 64 2.7 SW 22 33 12 18 1010.1 1010.1 4.2
23/10:30pm 9.0 4.2 2.8 65 2.6 WSW 17 22 9 12 1009.9 1009.9 4.2
23/10:00pm 9.3 2.5 3.3 66 2.6 WSW 28 39 15 21 1009.9 1009.9 4.2
23/09:30pm 9.1 1.6 3.3 67 2.5 WSW 32 43 17 23 1009.4 1009.4 4.2
23/09:00pm 8.8 2.5 3.6 70 2.3 WSW 26 33 14 18 1009.5 1009.5 4.2
23/08:30pm 9.1 1.8 4.3 72 2.1 WSW 32 39 17 21 1009.2 1009.2 4.2
23/08:00pm 9.4 1.2 4.6 72 2.1 WSW 37 48 20 26 1008.8 1008.8 4.2
23/07:30pm 9.5 3.5 5.1 74 2.0 WSW 26 33 14 18 1008.5 1008.5 4.2
23/07:00pm 9.3 3.3 5.5 77 1.7 WSW 26 33 14 18 1008.1 1008.1 4.2
23/06:30pm 9.1 2.4 5.7 79 1.5 WSW 30 37 16 20 1007.6 1007.6 4.2
23/06:00pm 8.9 2.2 5.5 79 1.5 WSW 30 39 16 21 1007.2 1007.2 4.2
23/05:30pm 9.1 3.1 5.5 78 1.6 WSW 26 41 14 22 1006.6 1006.6 4.2
23/05:00pm 9.0 1.7 5.4 78 1.6 WSW 33 41 18 22 1006.1 1006.1 4.2
23/04:40pm 8.8 1.1 5.2 78 1.6 WSW 35 54 19 29 1005.6 1005.6 4.2
23/04:30pm 9.0 -0.2 5.4 78 1.6 WSW 43 57 23 31 1005.4 1005.4 4.0
23/04:29pm 9.2 0.5 5.8 79 1.6 WSW 41 57 22 31 1005.4 1005.4 4.0
23/04:00pm 9.8 3.5 5.8 76 1.8 WSW 28 37 15 20 1005.2 1005.2 3.8
23/03:30pm 9.8 3.6 6.0 77 1.7 WSW 28 37 15 20 1004.7 1004.7 3.8
23/03:00pm 10.4 4.7 6.9 79 1.7 W 26 32 14 17 1004.2 1004.2 3.8
23/02:30pm 10.6 4.5 6.7 77 1.8 W 28 37 15 20 1003.6 1003.6 3.8
23/02:00pm 10.1 5.2 6.8 80 1.6 WSW 22 30 12 16 1003.2 1003.2 3.8
23/01:30pm 10.7 4.8 7.4 80 1.6 WSW 28 35 15 19 1003.3 1003.3 3.6
23/01:00pm 10.9 5.8 7.8 81 1.5 W 24 30 13 16 1003.1 1003.1 3.4
23/12:30pm 10.7 7.0 8.1 84 1.3 W 17 20 9 11 1003.1 1003.1 3.4
23/12:00pm 10.6 6.7 8.5 87 1.0 W 19 24 10 13 1003.1 1003.1 3.4
23/11:30am 10.9 8.6 9.0 88 0.9 W 11 15 6 8 1003.4 1003.4 2.6
23/11:00am 11.1 10.9 9.2 88 1.0 CALM 0 0 0 0 1003.5 1003.5 1.8
23/10:30am 11.1 10.2 9.2 88 0.9 N 4 6 2 3 1003.4 1003.4 0.8
23/10:00am 10.9 10.6 8.8 87 1.0 CALM 0 2 0 1 1003.2 1003.2 0.4
23/09:30am 10.9 10.3 9.0 88 0.9 S 2 6 1 3 1003.3 1003.3 0.0
23/09:00am 10.8 9.8 8.7 87 1.0 SSW 4 6 2 3 1003.0 1003.0 3.6
23/08:30am 10.6 8.1 8.4 86 1.1 W 11 15 6 8 1002.3 1002.2 3.4
23/08:00am 10.7 9.1 8.1 84 1.3 SW 6 7 3 4 1002.8 1002.8 3.2
23/07:30am 11.0 9.8 7.9 81 1.5 S 4 9 2 5 1002.8 1002.8 3.2
23/07:00am 11.2 9.9 7.7 79 1.7 SSW 4 6 2 3 1003.0 1003.0 3.2
23/06:30am 11.7 7.8 8.6 81 1.5 NNW 19 24 10 13 1004.1 1004.1 3.0
23/06:00am 12.1 8.8 8.2 77 1.9 WNW 15 22 8 12 1002.9 1002.9 1.8
23/05:30am 12.8 9.6 8.5 75 2.1 W 15 19 8 10 1003.3 1003.3 0.6
23/05:00am 13.0 8.1 8.5 74 2.3 W 24 32 13 17 1002.9 1002.9 0.4
23/04:30am 13.1 8.3 9.0 76 2.1 W 24 30 13 16 1002.8 1002.8 0.4
23/04:06am 14.2 9.5 9.4 73 2.5 N 24 46 13 25 1002.7 1002.7 0.2
23/04:00am 15.4 10.9 10.2 71 2.7 NNE 24 32 13 17 1002.4 1002.3 0.0
23/03:30am 14.9 11.1 9.7 71 2.7 NNE 20 22 11 12 1002.1 1002.0 0.0
23/03:00am 15.9 10.8 9.3 65 3.4 NNE 26 30 14 16 1002.5 1002.4 0.0
23/02:30am 15.7 10.7 9.6 67 3.2 NE 26 32 14 17 1003.0 1003.0 0.0
23/02:00am 16.2 12.0 8.4 60 4.0 N 20 26 11 14 1003.9 1003.9 0.0
23/01:30am 16.2 13.7 9.6 65 3.4 N 13 26 7 14 1004.6 1004.6 0.0
23/01:00am 14.8 13.1 9.8 72 2.6 N 9 13 5 7 1005.3 1005.3 0.0
23/12:30am 15.0 11.4 10.0 72 2.6 N 19 24 10 13 1005.5 1005.5 0.0
23/12:00am 15.0 10.0 9.6 70 2.8 N 26 28 14 15 1005.7 1005.7 0.0
 
Date/Time
EST
Temp
°C
App
Temp
°C
Dew
Point
Rel
Hum
%
Delta-T
°C
Wind Press
QNH
hPa
Press
MSL
hPa
Rain
since 9 am
mm
Dir
 
Spd
km/h
Gust
km/h
Spd
kts
Gust
kts
22/11:30pm 15.1 9.4 9.7 70 2.8 NNE 30 32 16 17 1006.0 1006.0 0.0
22/11:00pm 15.0 9.6 9.4 69 2.9 NNE 28 33 15 18 1006.7 1006.7 0.0

Other Formats:

Comma delimited format used in spreadsheet applications
http://www.bom.gov.au/fwo/IDT60801/IDT60801.94988.axf

JavaScript Object Notation format (JSON) in row-major order
http://www.bom.gov.au/fwo/IDT60801/IDT60801.94988.json